EW0797 Weather Reports


time (UTC)temp
C
wind
direction
speed
KPH
gust
KPH
rain 1hr
cm
rain 24hr
cm
rain mn
cm
humidity
%
barometer
mb
20220124175441 6 214 6.4 14.5 0.00 0.00 0.00 57 1006.8
20220124174941 6 216 4.8 14.5 0.00 0.00 0.00 58 1006.9
20220124174441 5 205 4.8 16.1 0.00 0.00 0.00 58 1006.9
20220124173941 5 204 6.4 16.1 0.00 0.00 0.00 58 1007.1
20220124173441 5 202 8.0 16.1 0.00 0.00 0.00 58 1007.2
20220124172941 5 210 8.0 16.1 0.00 0.00 0.00 58 1007.3
20220124172441 4 215 8.0 16.1 0.00 0.00 0.00 59 1007.4
20220124171941 4 204 8.0 19.3 0.00 0.00 0.00 59 1007.5
20220124171441 4 199 9.7 19.3 0.00 0.00 0.00 59 1007.5
20220124170941 3 194 9.7 20.9 0.00 0.00 0.00 60 1007.5
20220124170441 3 197 9.7 20.9 0.00 0.00 0.00 60 1007.5
20220124165940 3 197 8.0 20.9 0.00 0.00 0.00 60 1007.7
20220124165440 3 187 6.4 12.9 0.00 0.00 0.00 62 1007.8
20220124164941 2 182 6.4 14.5 0.00 0.00 0.00 62 1008.0
20220124164441 2 185 6.4 14.5 0.00 0.00 0.00 63 1008.1
20220124163941 2 184 6.4 12.9 0.00 0.00 0.00 63 1008.2
20220124163441 1 181 8.0 19.3 0.00 0.00 0.00 63 1008.3
20220124162941 1 183 9.7 19.3 0.00 0.00 0.00 63 1008.4
20220124162441 1 185 8.0 20.9 0.00 0.00 0.00 63 1008.4
20220124161941 1 187 6.4 20.9 0.00 0.00 0.00 63 1008.5
20220124161440 1 189 8.0 17.7 0.00 0.00 0.00 63 1008.6
20220124160940 1 195 8.0 16.1 0.00 0.00 0.00 64 1008.7
20220124160441 0 192 6.4 12.9 0.00 0.00 0.00 65 1008.8
20220124155941 0 186 8.0 17.7 0.00 0.00 0.00 65 1009.0
20220124155441 0 187 8.0 17.7 0.00 0.00 0.00 65 1008.9
20220124154941 0 189 8.0 16.1 0.00 0.00 0.00 66 1008.9
20220124154441 0 192 8.0 22.5 0.00 0.00 0.00 66 1008.9
20220124153941 0 191 8.0 22.5 0.00 0.00 0.00 67 1008.8
20220124153440 0 184 8.0 16.1 0.00 0.00 0.00 67 1008.8
20220124152940 -1 182 8.0 16.1 0.00 0.00 0.00 67 1008.8
20220124152441 -1 189 8.0 16.1 0.00 0.00 0.00 68 1009.0
20220124151941 -1 195 8.0 16.1 0.00 0.00 0.00 68 1008.9
20220124151441 -1 197 8.0 14.5 0.00 0.00 0.00 68 1009.0
20220124150941 -1 189 6.4 14.5 0.00 0.00 0.00 69 1009.0
20220124150440 -1 183 6.4 14.5 0.00 0.00 0.00 69 1008.8
20220124145940 -1 195 8.0 20.9 0.00 0.00 0.00 69 1009.0
20220124145441 -1 190 8.0 20.9 0.00 0.00 0.00 70 1009.0
20220124144940 -1 184 6.4 14.5 0.00 0.00 0.00 71 1008.8
20220124144441 -1 189 6.4 14.5 0.00 0.00 0.00 71 1008.9
20220124143941 -2 179 4.8 12.9 0.00 0.00 0.00 71 1009.1
20220124143441 -2 172 6.4 12.9 0.00 0.00 0.00 72 1009.0
20220124142941 -2 178 4.8 11.3 0.00 0.00 0.00 72 1009.1
20220124142441 -2 174 3.2 11.3 0.00 0.00 0.00 73 1009.2
20220124141940 -2 169 4.8 11.3 0.00 0.00 0.00 73 1009.1
20220124141440 -2 190 4.8 12.9 0.00 0.00 0.00 73 1009.1
20220124140941 -2 197 4.8 12.9 0.00 0.00 0.00 73 1009.5
20220124140441 -2 189 6.4 11.3 0.00 0.00 0.00 74 1009.4
20220124135941 -2 177 6.4 16.1 0.00 0.00 0.00 74 1009.4
20220124135441 -2 168 6.4 16.1 0.00 0.00 0.00 74 1009.3
20220124134940 -2 186 6.4 16.1 0.00 0.00 0.00 74 1009.5
20220124134440 -2 204 6.4 16.1 0.00 0.00 0.00 74 1010.0
20220124133940 -3 195 4.8 12.9 0.00 0.00 0.00 74 1009.9
20220124133441 -3 185 4.8 11.3 0.00 0.00 0.00 75 1009.9
20220124132941 -3 196 4.8 11.3 0.00 0.00 0.00 75 1010.0
20220124132440 -3 206 4.8 12.9 0.00 0.00 0.00 75 1010.0
20220124131940 -3 194 4.8 12.9 0.00 0.00 0.00 75 1010.0
20220124131441 -3 175 4.8 12.9 0.00 0.00 0.00 75 1009.6
20220124130941 -3 175 4.8 12.9 0.00 0.00 0.00 75 1009.6
20220124130441 -3 173 4.8 11.3 0.00 0.00 0.00 76 1009.7
20220124125941 -3 160 4.8 11.3 0.00 0.00 0.00 76 1009.5
20220124125441 -3 157 4.8 11.3 0.00 0.00 0.00 76 1009.6
20220124124941 -3 170 3.2 9.7 0.00 0.00 0.00 76 1010.0
20220124124440 -3 176 4.8 9.7 0.00 0.00 0.00 76 1010.4
20220124123940 -3 171 3.2 9.7 0.00 0.00 0.00 76 1010.5
20220124123441 -3 170 3.2 9.7 0.00 0.00 0.00 77 1010.6
20220124122941 -3 173 3.2 8.0 0.00 0.00 0.00 77 1010.7
20220124122441 -3 161 3.2 9.7 0.00 0.00 0.00 77 1010.6
20220124121940 -3 162 3.2 9.7 0.00 0.00 0.00 77 1010.7
20220124121440 -3 164 3.2 6.4 0.00 0.00 0.00 77 1010.7
20220124120940 -4 159 3.2 6.4 0.00 0.00 0.00 77 1010.7
20220124120441 -4 159 3.2 8.0 0.00 0.00 0.00 77 1010.7
20220124115941 -4 149 3.2 8.0 0.00 0.00 0.00 77 1010.9
20220124115441 -4 135 1.6 6.4 0.00 0.00 0.00 76 1010.8
20220124114940 -4 146 1.6 4.8 0.00 0.00 0.00 76 1011.0
20220124114440 -4 162 1.6 4.8 0.00 0.00 0.00 76 1011.2
20220124113940 -4 158 3.2 6.4 0.00 0.00 0.00 76 1011.2
20220124113441 -4 153 3.2 8.0 0.00 0.00 0.00 76 1011.2
20220124112941 -4 150 1.6 8.0 0.00 0.00 0.00 76 1011.1
20220124112440 -4 148 1.6 4.8 0.00 0.00 0.00 76 1011.3
20220124111940 -4 139 3.2 6.4 0.00 0.00 0.00 75 1011.3
20220124111441 -4 139 3.2 6.4 0.00 0.00 0.00 75 1011.2
20220124110941 -4 142 3.2 6.4 0.00 0.00 0.00 75 1011.4
20220124110441 -4 135 3.2 4.8 0.00 0.00 0.00 75 1011.5
20220124105941 -5 136 3.2 8.0 0.00 0.00 0.00 75 1011.6
20220124105440 -5 138 4.8 8.0 0.00 0.00 0.00 75 1011.7
20220124104940 -5 139 3.2 8.0 0.00 0.00 0.00 74 1011.8
20220124104441 -5 145 3.2 8.0 0.00 0.00 0.00 74 1012.0
20220124103941 -5 151 3.2 6.4 0.00 0.00 0.00 73 1012.1
20220124103441 -4 149 1.6 6.4 0.00 0.00 0.00 73 1012.2
20220124102941 -4 140 1.6 6.4 0.00 0.00 0.00 73 1012.2
20220124102440 -4 128 1.6 6.4 0.00 0.00 0.00 73 1012.3
20220124101940 -4 138 3.2 9.7 0.00 0.00 0.00 73 1012.4
20220124101440 -4 141 4.8 9.7 0.00 0.00 0.00 73 1012.3
20220124100941 -4 133 3.2 8.0 0.00 0.00 0.00 72 1012.4
20220124100441 -4 137 3.2 8.0 0.00 0.00 0.00 72 1012.6
20220124095941 -4 149 1.6 6.4 0.00 0.00 0.00 72 1012.5
20220124095441 -4 154 1.6 4.8 0.00 0.00 0.00 72 1012.8
20220124094940 -4 153 3.2 8.0 0.00 0.00 0.00 72 1012.9
20220124094441 -4 145 4.8 9.7 0.00 0.00 0.00 72 1012.8
20220124093940 -4 138 6.4 11.3 0.00 0.00 0.00 71 1012.6
20220124093441 -4 139 6.4 11.3 0.00 0.00 0.00 71 1012.7
20220124092941 -4 141 6.4 11.3 0.00 0.00 0.00 71 1012.8
20220124092441 -4 139 4.8 9.7 0.00 0.00 0.00 71 1013.0
20220124091940 -4 138 4.8 9.7 0.00 0.00 0.00 71 1013.1
20220124091440 -4 134 4.8 9.7 0.00 0.00 0.00 71 1013.0
20220124090940 -4 133 6.4 14.5 0.00 0.00 0.00 71 1013.1
20220124090441 -4 134 6.4 14.5 0.00 0.00 0.00 71 1013.2
20220124085941 -4 134 4.8 9.7 0.00 0.00 0.00 71 1013.3
20220124085441 -4 135 4.8 9.7 0.00 0.00 0.00 70 1013.4
20220124084940 -4 135 4.8 9.7 0.00 0.00 0.00 70 1013.5
20220124084440 -4 133 3.2 9.7 0.00 0.00 0.00 70 1013.6
20220124083940 -4 132 3.2 8.0 0.00 0.00 0.00 70 1013.7
20220124083441 -4 133 4.8 9.7 0.00 0.00 0.00 70 1013.8
20220124082941 -4 128 4.8 11.3 0.00 0.00 0.00 69 1013.8
20220124082441 -4 123 4.8 11.3 0.00 0.00 0.00 69 1013.8
20220124081940 -4 129 4.8 11.3 0.00 0.00 0.00 69 1013.8
20220124081440 -4 136 4.8 11.3 0.00 0.00 0.00 69 1013.9
20220124080940 -4 132 4.8 9.7 0.00 0.00 0.00 69 1013.9
20220124080441 -4 125 3.2 9.7 0.00 0.00 0.00 69 1013.9
20220124075941 -4 123 3.2 9.7 0.00 0.00 0.00 69 1013.9
20220124075441 -4 129 4.8 9.7 0.00 0.00 0.00 69 1013.9
20220124074940 -4 128 4.8 9.7 0.00 0.00 0.00 70 1013.9
20220124074440 -4 125 4.8 11.3 0.00 0.00 0.00 70 1013.9
20220124073940 -4 125 3.2 11.3 0.00 0.00 0.00 70 1014.0
20220124073441 -4 118 3.2 8.0 0.00 0.00 0.00 70 1014.0
20220124072941 -4 111 3.2 9.7 0.00 0.00 0.00 71 1014.0
20220124072441 -4 107 3.2 9.7 0.00 0.00 0.00 71 1013.9
20220124071941 -4 101 3.2 6.4 0.00 0.00 0.00 72 1014.1
20220124071440 -4 93 3.2 8.0 0.00 0.00 0.00 72 1014.2
20220124070940 -4 90 3.2 8.0 0.00 0.00 0.00 73 1014.1
20220124070440 -4 99 1.6 8.0 0.00 0.00 0.00 74 1014.1
20220124065941 -5 118 1.6 8.0 0.00 0.00 0.00 76 1014.2
20220124065440 -5 117 1.6 4.8 0.00 0.00 0.00 77 1014.2
20220124064940 -5 105 1.6 4.8 0.00 0.00 0.00 78 1014.2
20220124064441 -5 99 1.6 4.8 0.00 0.00 0.00 79 1014.2
20220124063941 -5 90 1.6 4.8 0.00 0.00 0.00 79 1014.2
20220124063441 -5 74 3.2 6.4 0.00 0.00 0.00 79 1014.3
20220124062940 -5 59 1.6 6.4 0.00 0.00 0.00 79 1014.3
20220124062440 -5 0 0.0 6.4 0.00 0.00 0.00 78 1014.3
20220124061940 -5 0 0.0 0.0 0.00 0.00 0.00 78 1014.4
20220124061440 -5 0 0.0 0.0 0.00 0.00 0.00 77 1014.6
20220124060941 -5 0 0.0 0.0 0.00 0.00 0.00 77 1014.7
20220124060441 -5 0 0.0 0.0 0.00 0.00 0.00 76 1014.8
20220124055940 -5 0 0.0 0.0 0.00 0.00 0.00 76 1014.9
20220124055440 -5 0 0.0 0.0 0.00 0.00 0.00 76 1014.9
20220124054941 -5 0 0.0 0.0 0.00 0.00 0.00 75 1014.9
20220124054441 -5 0 0.0 0.0 0.00 0.00 0.00 75 1014.9
20220124053940 -5 0 0.0 0.0 0.00 0.00 0.00 75 1015.1
20220124053441 -5 0 0.0 0.0 0.00 0.00 0.00 75 1015.1
20220124052940 -5 0 0.0 0.0 0.00 0.00 0.00 75 1015.2
20220124052440 -5 0 0.0 0.0 0.00 0.00 0.00 75 1015.4
20220124051940 -5 0 0.0 0.0 0.00 0.00 0.00 75 1015.4
20220124051441 -5 0 0.0 0.0 0.00 0.00 0.00 75 1015.4
20220124050941 -5 0 0.0 0.0 0.00 0.00 0.00 75 1015.4
20220124050442 -5 0 0.0 0.0 0.00 0.00 0.00 75 1015.3
20220124045941 -5 0 0.0 0.0 0.00 0.00 0.00 75 1015.4
20220124045440 -5 0 0.0 0.0 0.00 0.00 0.00 74 1015.3
20220124044940 -5 0 0.0 0.0 0.00 0.00 0.00 74 1015.4
20220124044440 -5 0 0.0 0.0 0.00 0.00 0.00 74 1015.4
20220124043941 -5 0 0.0 0.0 0.00 0.00 0.00 74 1015.1
20220124043443 -5 0 0.0 0.0 0.00 0.00 0.00 74 1015.1
20220124042941 -4 0 0.0 0.0 0.00 0.00 0.00 73 1015.4
20220124042441 -4 0 0.0 0.0 0.00 0.00 0.00 72 1015.6
20220124041940 -4 0 0.0 0.0 0.00 0.00 0.00 72 1015.7
20220124041440 -4 0 0.0 0.0 0.00 0.00 0.00 72 1015.6
20220124040940 -4 0 0.0 0.0 0.00 0.00 0.00 71 1015.7
20220124040440 -4 0 0.0 0.0 0.00 0.00 0.00 70 1015.7
20220124035941 -4 0 0.0 0.0 0.00 0.00 0.00 70 1015.8
20220124035440 -3 0 0.0 0.0 0.00 0.00 0.00 69 1015.8
20220124034940 -3 0 0.0 0.0 0.00 0.00 0.00 68 1015.9
20220124034440 -3 0 0.0 0.0 0.00 0.00 0.00 68 1015.9
20220124033940 -3 0 0.0 0.0 0.00 0.00 0.00 68 1015.6
20220124033441 -3 0 0.0 0.0 0.00 0.00 0.00 68 1015.5
20220124032941 -3 0 0.0 0.0 0.00 0.00 0.00 67 1015.4
20220124032440 -3 0 0.0 0.0 0.00 0.00 0.00 67 1015.6
20220124031940 -3 0 0.0 0.0 0.00 0.00 0.00 67 1015.5
20220124031440 -3 0 0.0 0.0 0.00 0.00 0.00 67 1015.6
20220124030940 -2 0 0.0 0.0 0.00 0.00 0.00 66 1015.6
20220124030441 -2 0 0.0 0.0 0.00 0.00 0.00 67 1015.5
20220124025940 -2 0 0.0 0.0 0.00 0.00 0.00 66 1015.6
20220124025440 -2 0 0.0 0.0 0.00 0.00 0.00 66 1015.8
20220124024940 -2 0 0.0 0.0 0.00 0.00 0.00 66 1015.8
20220124024440 -2 0 0.0 0.0 0.00 0.00 0.00 66 1015.8
20220124023940 -2 329 1.6 3.2 0.00 0.00 0.00 66 1015.8
20220124023440 -2 329 1.6 3.2 0.00 0.00 0.00 66 1015.6
20220124022940 -2 329 1.6 3.2 0.00 0.00 0.00 65 1015.6
20220124022440 -2 0 0.0 3.2 0.00 0.00 0.00 65 1015.6
20220124021940 -2 0 0.0 4.8 0.00 0.00 0.00 65 1015.6
20220124021440 -2 329 1.6 4.8 0.00 0.00 0.00 65 1015.8
20220124020940 -2 329 1.6 4.8 0.00 0.00 0.00 65 1015.8
20220124020440 -1 331 1.6 4.8 0.00 0.00 0.00 65 1015.8
20220124015940 -1 340 1.6 6.4 0.00 0.00 0.00 64 1015.7
20220124015441 -1 349 1.6 6.4 0.00 0.00 0.00 64 1015.6
20220124014940 -1 347 1.6 6.4 0.00 0.00 0.00 64 1015.6
20220124014440 -1 349 1.6 6.4 0.00 0.00 0.00 64 1015.5
20220124013940 -1 342 3.2 6.4 0.00 0.00 0.00 64 1015.5
20220124013440 -1 338 4.8 9.7 0.00 0.00 0.00 64 1015.6
20220124012940 -1 340 4.8 11.3 0.00 0.00 0.00 64 1015.6
20220124012440 -1 342 4.8 12.9 0.00 0.00 0.00 64 1015.7
20220124011940 -1 343 6.4 12.9 0.00 0.00 0.00 64 1015.7
20220124011440 -1 343 6.4 11.3 0.00 0.00 0.00 64 1015.6
20220124010940 -1 344 4.8 11.3 0.00 0.00 0.00 64 1015.5
20220124010441 -1 341 4.8 11.3 0.00 0.00 0.00 64 1015.5
20220124005941 -1 335 6.4 12.9 0.00 0.00 0.00 65 1015.4
20220124005440 -1 339 6.4 16.1 0.00 0.00 0.00 65 1015.5
20220124004940 -1 348 6.4 16.1 0.00 0.00 0.00 65 1015.5
20220124004440 -1 353 6.4 14.5 0.00 0.00 0.00 65 1015.2
20220124003940 -1 352 6.4 12.9 0.00 0.00 0.00 65 1015.3
20220124003440 -1 341 6.4 16.1 0.00 0.00 0.00 65 1015.2
20220124002940 -1 335 6.4 16.1 0.00 0.00 0.00 65 1015.3
20220124002440 -1 341 4.8 11.3 0.00 0.00 0.00 65 1015.2
20220124001940 -1 345 6.4 11.3 0.00 0.00 0.00 65 1015.2
20220124001440 -1 341 4.8 11.3 0.00 0.00 0.00 65 1015.0
20220124000940 -1 340 4.8 11.3 0.00 0.00 0.00 65 1014.9
20220124000440 -1 344 6.4 14.5 0.00 0.00 0.00 64 1014.8
20220123235941 -1 346 6.4 14.5 0.00 0.00 0.00 64 1014.7
20220123235440 -1 346 6.4 14.5 0.00 0.00 0.00 64 1014.6
20220123234940 0 348 6.4 14.5 0.00 0.00 0.00 64 1014.5
20220123234440 0 355 6.4 16.1 0.00 0.00 0.00 63 1014.5
20220123233940 0 4 8.0 17.7 0.00 0.00 0.00 63 1014.4
20220123233440 0 355 8.0 19.3 0.00 0.00 0.00 63 1014.3
20220123232940 0 348 9.7 19.3 0.00 0.00 0.00 63 1014.2
20220123232440 0 347 9.7 19.3 0.00 0.00 0.00 62 1014.2
20220123231940 0 343 8.0 19.3 0.00 0.00 0.00 62 1014.1
20220123231440 0 341 6.4 16.1 0.00 0.00 0.00 62 1014.1
20220123230940 0 350 8.0 19.3 0.00 0.00 0.00 61 1013.9
20220123230441 0 354 8.0 19.3 0.00 0.00 0.00 60 1013.8
20220123225941 1 355 8.0 19.3 0.00 0.00 0.00 60 1013.7
20220123225440 1 355 8.0 19.3 0.00 0.00 0.00 60 1013.7
20220123224940 1 351 8.0 19.3 0.00 0.00 0.00 59 1013.7
20220123224440 1 350 9.7 22.5 0.00 0.00 0.00 59 1013.5
20220123223940 1 339 8.0 22.5 0.00 0.00 0.00 60 1013.4
20220123223440 1 330 9.7 24.1 0.00 0.00 0.00 60 1013.3
20220123222940 2 334 11.3 24.1 0.00 0.00 0.00 60 1013.3
20220123222440 2 334 11.3 19.3 0.00 0.00 0.00 60 1013.3
20220123221940 2 326 11.3 24.1 0.00 0.00 0.00 60 1013.2
20220123221440 2 328 8.0 24.1 0.00 0.00 0.00 60 1013.2
20220123220940 2 344 8.0 16.1 0.00 0.00 0.00 60 1013.1
20220123220440 2 341 9.7 19.3 0.00 0.00 0.00 60 1013.0
20220123215940 2 332 11.3 22.5 0.00 0.00 0.00 60 1012.9
20220123215440 3 334 11.3 22.5 0.00 0.00 0.00 59 1012.9
20220123214940 3 353 9.7 19.3 0.00 0.00 0.00 58 1012.8
20220123214440 3 352 11.3 19.3 0.00 0.00 0.00 57 1012.6
20220123213940 3 321 12.9 20.9 0.00 0.00 0.00 56 1012.4
20220123213440 4 308 14.5 22.5 0.00 0.00 0.00 56 1012.3
20220123212940 4 314 12.9 27.4 0.00 0.00 0.00 56 1012.3
20220123212441 4 311 11.3 27.4 0.00 0.00 0.00 56 1012.2
20220123211940 4 302 11.3 25.7 0.00 0.00 0.00 57 1012.1
20220123211440 4 297 9.7 25.7 0.00 0.00 0.00 56 1012.1
20220123210940 4 288 9.7 20.9 0.00 0.00 0.00 57 1012.0
20220123210440 4 291 12.9 29.0 0.00 0.00 0.00 56 1011.9
20220123205939 4 291 11.3 29.0 0.00 0.00 0.00 56 1012.0
20220123205440 5 287 11.3 25.7 0.00 0.00 0.00 56 1011.9
20220123204940 5 287 11.3 22.5 0.00 0.00 0.00 56 1011.9
20220123204440 5 288 11.3 24.1 0.00 0.00 0.00 56 1011.8
20220123203940 5 286 11.3 24.1 0.00 0.00 0.00 55 1011.8
20220123203440 5 287 9.7 22.5 0.00 0.00 0.00 55 1011.7
20220123202940 5 287 8.0 22.5 0.00 0.00 0.00 55 1011.7
20220123202441 5 284 8.0 17.7 0.00 0.00 0.00 55 1011.6
20220123201940 5 292 8.0 17.7 0.00 0.00 0.00 55 1011.6
20220123201440 5 281 8.0 19.3 0.00 0.00 0.00 55 1011.5
20220123200940 5 270 8.0 19.3 0.00 0.00 0.00 55 1011.3
20220123200440 5 272 8.0 14.5 0.00 0.00 0.00 55 1011.4
20220123195940 4 269 6.4 16.1 0.00 0.00 0.00 55 1011.2
20220123195440 4 268 6.4 16.1 0.00 0.00 0.00 56 1011.4
20220123194940 4 262 9.7 19.3 0.00 0.00 0.00 55 1011.4
20220123194439 4 257 9.7 20.9 0.00 0.00 0.00 55 1011.3
20220123193940 4 255 9.7 22.5 0.00 0.00 0.00 55 1011.3
20220123193440 4 256 11.3 24.1 0.00 0.00 0.00 55 1011.3
20220123192940 4 259 12.9 24.1 0.00 0.00 0.00 54 1011.3
20220123192440 4 263 11.3 24.1 0.00 0.00 0.00 55 1011.3
20220123191939 4 269 9.7 19.3 0.00 0.00 0.00 54 1011.2
20220123191440 4 271 8.0 22.5 0.00 0.00 0.00 55 1011.2
20220123190940 4 269 9.7 22.5 0.00 0.00 0.00 55 1011.1
20220123190440 3 263 11.3 24.1 0.00 0.00 0.00 55 1011.1
20220123185940 3 254 12.9 24.1 0.00 0.00 0.00 55 1011.1
20220123185440 3 252 12.9 25.7 0.00 0.00 0.00 55 1011.1
20220123184940 3 252 11.3 25.7 0.00 0.00 0.00 55 1011.0
20220123184440 3 246 9.7 24.1 0.00 0.00 0.00 56 1011.0
20220123183940 3 248 8.0 17.7 0.00 0.00 0.00 57 1011.1
20220123183440 3 252 8.0 14.5 0.00 0.00 0.00 56 1011.2
20220123182940 3 248 9.7 22.5 0.00 0.00 0.00 56 1011.2
20220123182440 3 247 9.7 22.5 0.00 0.00 0.00 56 1011.2
20220123181940 2 250 9.7 20.9 0.00 0.00 0.00 56 1011.4
20220123181440 2 255 9.7 20.9 0.00 0.00 0.00 56 1011.3
20220123180939 2 253 8.0 16.1 0.00 0.00 0.00 56 1011.4
20220123180440 2 251 9.7 24.1 0.00 0.00 0.00 56 1011.4
20220123175940 2 251 11.3 24.1 0.00 0.00 0.00 56 1011.6